Terminal Aerodrome Forecast
Issued by NWS

Home | Current Version | Previous Version | Text Only | Print | Product List | Glossary On
Versions: 1 2 3 4 5 6 7 8 9 10 11 12 13 14 15 16 17
000
FTUS45 KTFX 092358 CCA
TAFHVR
TAF COR
KHVR 092358Z 1000/1024 08010KT P6SM BKN080
      TEMPO 1001/1003 5SM -SN BR
     FM100800 07010KT 3SM -SN BR BKN025
     FM101200 07010KT 1SM -SN BR SCT010 BKN020
     FM102100 06008KT 3SM -SN BR FEW010 BKN020=

USA.gov is the U.S. government's official web portal to all federal, state and local government web resources and services.